UAIILTFJ

Guest
Details From UAII - Shymkent
To LTFJ - Sabiha Gokcen
Flight Number -
Tags Generated
Created
Modified
Stats Distance 1,789 nm / 3,313 km
Max Altitude 0 ft / 0 m
Waypoints 5
Social Downloads 0
Likes 0
Share VATSIM

Download

Looking for another format? Having issues loading an existing format? Contact us
Advertisement - Login to hide

Notes

Generated

Route

UAII IPLED ULANA R2486 LTFJ

ID Type Via Altitude Latitude Longitude Leg Dist Tot Dist Heading (true) Name
O UAII APT - 0 ft / 0 m 42.36776˚ 69.46280˚ - 0 nm - -
IPLED FIX - 0 ft / 0 m 43.39667˚ 49.50000˚ 878 nm 878 nm 281° / 267° -
ULANA FIX - 0 ft / 0 m 43.31667˚ 43.78333˚ 249 nm 1128 nm 271° / 267° -
R2486 FIX - 0 ft / 0 m 40.89274˚ 29.29343˚ 660 nm 1789 nm 262° / 252° -
O LTFJ APT - 0 ft / 0 m 40.89274˚ 29.29343˚ 0 nm 1789 nm 0° / 180° -

Altitude Profile

Advertisement - Login to hide

Weather


0- 5 10 15 20 25 30 35+ Temperature / ° C

Clouds and Precipitation
Forecast for 2017-12-16 00:00 UTC. Updated an hour ago

Ground ~20,000 ft ~40,000 ft Winds

UAII

Details ICAO UAII (CIT)
Name SHYMKENT
Region Kazakhstan and Kyrgyzstan
Timezone Asia/Almaty (UTC+6.0)
Stats Elevation 1,385 ft / 422 m (AMSL)
Location 42.364236° 69.479116°
Runways 1
Magnetic Variation 5.826° E

METAR

UAII 152000Z 00000MPS 0050 R10/0075 FZFG VV002 M12/M13 Q1028 R10/0///70 NOSIG RMK QBB060 QFE736/0981

Decode

TAF

TAF UAII 151700Z 1518/1618 VRB02MPS 0150 FZFG VV002 TXM03/1609Z TNM14/1601Z TEMPO 1518/1605 33004MPS 0600 VV003 BECMG 1605/1606 35005MPS 1200 BR BKN004 OVC020

Decode

Departure Runways

ID Width Length Bearing (true) Bearing (mag) Surface Threshold Offset Overrun Length
10 144 ft / 44 m 9,167 ft / 2,794 m 106.29° 100.46° Concrete 0 ft / 0 m 0 ft / 0 m
28 144 ft / 44 m 9,167 ft / 2,794 m 286.31° 280.48° Concrete 0 ft / 0 m 0 ft / 0 m

LTFJ

Details ICAO LTFJ (SAW)
Name SABIHA GOKCEN
Region Turkey
Timezone Europe/Istanbul (UTC+3.0)
Stats Elevation 312 ft / 95 m (AMSL)
Location 40.898552° 29.309221°
Runways 1
Magnetic Variation 5.474° E

METAR

LTFJ 151950Z VRB01KT CAVOK 13/06 Q1014 NOSIG

Decode

TAF

Not found

Destination Runways

ID Width Length Bearing (true) Bearing (mag) Surface Threshold Offset Overrun Length
06 148 ft / 45 m 9,690 ft / 2,953 m 64.01° 58.54° Concrete 0 ft / 0 m 197 ft / 60 m
24 148 ft / 45 m 9,690 ft / 2,953 m 244.03° 238.56° Concrete 0 ft / 0 m 197 ft / 60 m

Approach Navaids

Runway Type Ident Frequency Range Bearing (true) Bearing (mag) Slope Elevation
06 Localiser ISAB 109.90 MHz 18 nm / 33 km 64.03° 58.56° - 293 ft / 89 m (AMSL)
06 Glidescope ISAB 109.90 MHz 10 nm / 19 km 64.02° 58.55° 3.50° 294 ft / 90 m (AMSL)
06 DME ISAB 109.90 MHz 18 nm / 33 km - - - 312 ft / 95 m (AMSL)
24 Localiser ISBH 110.90 MHz 18 nm / 33 km 244.01° 238.54° - 285 ft / 87 m (AMSL)
24 Glidescope ISBH 110.90 MHz 10 nm / 19 km 244.02° 238.55° 3.50° 299 ft / 91 m (AMSL)
24 DME ISBH 110.90 MHz 18 nm / 33 km - - - 318 ft / 97 m (AMSL)